sensor_id;sensor_type;location;lat;lon;timestamp;pressure;altitude;pressure_sealevel;temperature;humidity
21100;BME280;10708;50.824;4.408;2023-04-08T00:03:50;101292.66;;;8.56;100.00
21100;BME280;10708;50.824;4.408;2023-04-08T00:08:54;101294.53;;;8.46;100.00
21100;BME280;10708;50.824;4.408;2023-04-08T00:13:56;101300.69;;;8.44;100.00
21100;BME280;10708;50.824;4.408;2023-04-08T00:18:59;101308.63;;;8.41;100.00
21100;BME280;10708;50.824;4.408;2023-04-08T00:24:03;101302.44;;;8.45;100.00
21100;BME280;10708;50.824;4.408;2023-04-08T00:29:05;101298.97;;;8.41;100.00
21100;BME280;10708;50.824;4.408;2023-04-08T00:34:08;101302.56;;;8.37;100.00
21100;BME280;10708;50.824;4.408;2023-04-08T00:39:12;101301.63;;;8.40;100.00
21100;BME280;10708;50.824;4.408;2023-04-08T00:44:14;101305.06;;;8.45;100.00
21100;BME280;10708;50.824;4.408;2023-04-08T00:49:17;101298.06;;;8.44;100.00
21100;BME280;10708;50.824;4.408;2023-04-08T00:54:21;101316.56;;;8.36;100.00
21100;BME280;10708;50.824;4.408;2023-04-08T00:59:24;101302.50;;;8.40;100.00
21100;BME280;10708;50.824;4.408;2023-04-08T01:04:31;101312.09;;;8.41;100.00
21100;BME280;10708;50.824;4.408;2023-04-08T01:09:38;101311.31;;;8.38;100.00
21100;BME280;10708;50.824;4.408;2023-04-08T01:14:44;101313.97;;;8.33;100.00
21100;BME280;10708;50.824;4.408;2023-04-08T01:19:49;101315.59;;;8.42;100.00
21100;BME280;10708;50.824;4.408;2023-04-08T01:25:00;101308.53;;;8.47;100.00
21100;BME280;10708;50.824;4.408;2023-04-08T01:30:07;101314.88;;;8.29;100.00
21100;BME280;10708;50.824;4.408;2023-04-08T01:35:10;101316.50;;;8.39;100.00
21100;BME280;10708;50.824;4.408;2023-04-08T01:40:14;101312.94;;;8.46;100.00
21100;BME280;10708;50.824;4.408;2023-04-08T01:45:19;101313.94;;;8.36;100.00
21100;BME280;10708;50.824;4.408;2023-04-08T01:50:22;101314.88;;;8.32;100.00
21100;BME280;10708;50.824;4.408;2023-04-08T01:55:27;101321.81;;;8.38;100.00
21100;BME280;10708;50.824;4.408;2023-04-08T02:00:32;101310.47;;;8.34;100.00
21100;BME280;10708;50.824;4.408;2023-04-08T02:05:36;101321.00;;;8.31;100.00
21100;BME280;10708;50.824;4.408;2023-04-08T02:10:38;101316.72;;;8.23;100.00
21100;BME280;10708;50.824;4.408;2023-04-08T02:15:46;101315.75;;;8.31;100.00
21100;BME280;10708;50.824;4.408;2023-04-08T02:20:58;101314.06;;;8.27;100.00
21100;BME280;10708;50.824;4.408;2023-04-08T02:26:06;101319.34;;;8.23;100.00
21100;BME280;10708;50.824;4.408;2023-04-08T02:31:12;101322.94;;;8.17;100.00
21100;BME280;10708;50.824;4.408;2023-04-08T02:36:15;101326.38;;;8.21;100.00
21100;BME280;10708;50.824;4.408;2023-04-08T02:41:18;101336.09;;;8.15;100.00
21100;BME280;10708;50.824;4.408;2023-04-08T02:46:22;101331.00;;;8.03;100.00
21100;BME280;10708;50.824;4.408;2023-04-08T02:51:24;101332.66;;;8.09;100.00
21100;BME280;10708;50.824;4.408;2023-04-08T02:56:27;101337.22;;;7.95;100.00
21100;BME280;10708;50.824;4.408;2023-04-08T03:01:31;101335.34;;;8.04;100.00
21100;BME280;10708;50.824;4.408;2023-04-08T03:06:33;101339.84;;;7.96;100.00
21100;BME280;10708;50.824;4.408;2023-04-08T03:11:35;101335.44;;;7.98;100.00
21100;BME280;10708;50.824;4.408;2023-04-08T03:16:39;101342.38;;;8.01;100.00
21100;BME280;10708;50.824;4.408;2023-04-08T03:21:41;101343.25;;;8.01;100.00
21100;BME280;10708;50.824;4.408;2023-04-08T03:26:44;101346.78;;;7.99;100.00
21100;BME280;10708;50.824;4.408;2023-04-08T03:31:47;101338.25;;;7.83;100.00
21100;BME280;10708;50.824;4.408;2023-04-08T03:36:50;101339.88;;;7.90;100.00
21100;BME280;10708;50.824;4.408;2023-04-08T03:41:52;101345.97;;;7.94;100.00
21100;BME280;10708;50.824;4.408;2023-04-08T03:46:56;101353.81;;;7.97;100.00
21100;BME280;10708;50.824;4.408;2023-04-08T03:51:58;101355.59;;;7.93;100.00
21100;BME280;10708;50.824;4.408;2023-04-08T03:57:00;101354.69;;;7.97;100.00
21100;BME280;10708;50.824;4.408;2023-04-08T04:02:04;101357.25;;;8.02;100.00
21100;BME280;10708;50.824;4.408;2023-04-08T04:07:07;101362.50;;;8.00;100.00
21100;BME280;10708;50.824;4.408;2023-04-08T04:12:09;101367.81;;;7.96;100.00
21100;BME280;10708;50.824;4.408;2023-04-08T04:17:12;101359.88;;;8.00;100.00
21100;BME280;10708;50.824;4.408;2023-04-08T04:22:15;101372.09;;;8.01;100.00
21100;BME280;10708;50.824;4.408;2023-04-08T04:27:17;101371.25;;;8.01;100.00
21100;BME280;10708;50.824;4.408;2023-04-08T04:32:21;101370.34;;;8.03;100.00
21100;BME280;10708;50.824;4.408;2023-04-08T04:37:23;101372.88;;;8.09;100.00
21100;BME280;10708;50.824;4.408;2023-04-08T04:42:26;101373.75;;;8.10;100.00
21100;BME280;10708;50.824;4.408;2023-04-08T04:47:29;101386.00;;;8.09;100.00
21100;BME280;10708;50.824;4.408;2023-04-08T04:52:34;101393.81;;;8.14;100.00
21100;BME280;10708;50.824;4.408;2023-04-08T04:57:37;101390.31;;;8.15;100.00
21100;BME280;10708;50.824;4.408;2023-04-08T05:02:40;101398.09;;;8.20;100.00
21100;BME280;10708;50.824;4.408;2023-04-08T05:07:43;101397.22;;;8.22;100.00
21100;BME280;10708;50.824;4.408;2023-04-08T05:12:45;101394.56;;;8.24;100.00
21100;BME280;10708;50.824;4.408;2023-04-08T05:17:49;101404.19;;;8.25;100.00
21100;BME280;10708;50.824;4.408;2023-04-08T05:22:51;101394.56;;;8.25;100.00
21100;BME280;10708;50.824;4.408;2023-04-08T05:27:53;101399.78;;;8.27;100.00
21100;BME280;10708;50.824;4.408;2023-04-08T05:32:57;101408.56;;;8.23;100.00
21100;BME280;10708;50.824;4.408;2023-04-08T05:37:59;101407.59;;;8.30;100.00
21100;BME280;10708;50.824;4.408;2023-04-08T05:43:01;101417.22;;;8.31;100.00
21100;BME280;10708;50.824;4.408;2023-04-08T05:48:05;101417.22;;;8.34;100.00
21100;BME280;10708;50.824;4.408;2023-04-08T05:53:08;101421.56;;;8.38;100.00
21100;BME280;10708;50.824;4.408;2023-04-08T05:58:10;101424.97;;;8.41;100.00
21100;BME280;10708;50.824;4.408;2023-04-08T06:03:14;101423.22;;;8.43;100.00
21100;BME280;10708;50.824;4.408;2023-04-08T06:08:16;101441.59;;;8.42;100.00
21100;BME280;10708;50.824;4.408;2023-04-08T06:13:19;101435.31;;;8.54;100.00
21100;BME280;10708;50.824;4.408;2023-04-08T06:18:23;101435.34;;;8.50;100.00
21100;BME280;10708;50.824;4.408;2023-04-08T06:23:25;101442.22;;;8.61;100.00
21100;BME280;10708;50.824;4.408;2023-04-08T06:28:28;101450.06;;;8.65;100.00
21100;BME280;10708;50.824;4.408;2023-04-08T06:33:32;101461.31;;;8.72;100.00
21100;BME280;10708;50.824;4.408;2023-04-08T06:38:34;101469.25;;;8.69;100.00
21100;BME280;10708;50.824;4.408;2023-04-08T06:43:37;101463.97;;;8.69;100.00
21100;BME280;10708;50.824;4.408;2023-04-08T06:48:40;101467.47;;;8.71;100.00
21100;BME280;10708;50.824;4.408;2023-04-08T06:53:43;101468.22;;;8.79;100.00
21100;BME280;10708;50.824;4.408;2023-04-08T06:58:45;101463.03;;;8.77;100.00
21100;BME280;10708;50.824;4.408;2023-04-08T07:03:49;101471.72;;;8.79;100.00
21100;BME280;10708;50.824;4.408;2023-04-08T07:08:51;101470.75;;;8.88;100.00
21100;BME280;10708;50.824;4.408;2023-04-08T07:13:54;101476.63;;;9.04;100.00
21100;BME280;10708;50.824;4.408;2023-04-08T07:18:58;101485.56;;;8.92;100.00
21100;BME280;10708;50.824;4.408;2023-04-08T07:24:00;101482.41;;;9.27;100.00
21100;BME280;10708;50.824;4.408;2023-04-08T07:29:03;101491.09;;;9.32;100.00
21100;BME280;10708;50.824;4.408;2023-04-08T07:34:06;101499.31;;;9.65;100.00
21100;BME280;10708;50.824;4.408;2023-04-08T07:39:08;101491.03;;;9.87;100.00
21100;BME280;10708;50.824;4.408;2023-04-08T07:44:11;101495.31;;;9.91;100.00
21100;BME280;10708;50.824;4.408;2023-04-08T07:49:18;101503.88;;;10.03;100.00
21100;BME280;10708;50.824;4.408;2023-04-08T07:54:20;101508.97;;;10.13;100.00
21100;BME280;10708;50.824;4.408;2023-04-08T07:59:22;101512.59;;;10.08;100.00
21100;BME280;10708;50.824;4.408;2023-04-08T08:04:26;101517.69;;;10.15;100.00
21100;BME280;10708;50.824;4.408;2023-04-08T08:09:28;101524.59;;;10.22;100.00
21100;BME280;10708;50.824;4.408;2023-04-08T08:14:31;101523.66;;;10.26;100.00
21100;BME280;10708;50.824;4.408;2023-04-08T08:19:34;101534.16;;;10.28;100.00
21100;BME280;10708;50.824;4.408;2023-04-08T08:24:37;101535.34;;;10.09;100.00
21100;BME280;10708;50.824;4.408;2023-04-08T08:29:39;101538.09;;;10.03;100.00
21100;BME280;10708;50.824;4.408;2023-04-08T08:34:43;101544.72;;;9.76;100.00
21100;BME280;10708;50.824;4.408;2023-04-08T08:39:45;101552.38;;;9.89;100.00
21100;BME280;10708;50.824;4.408;2023-04-08T08:44:48;101559.63;;;9.77;100.00
21100;BME280;10708;50.824;4.408;2023-04-08T08:49:52;101563.84;;;9.85;100.00
21100;BME280;10708;50.824;4.408;2023-04-08T08:54:58;101563.56;;;10.00;100.00
21100;BME280;10708;50.824;4.408;2023-04-08T09:00:01;101557.22;;;10.12;100.00
21100;BME280;10708;50.824;4.408;2023-04-08T09:05:05;101554.38;;;10.26;100.00
21100;BME280;10708;50.824;4.408;2023-04-08T09:10:08;101564.34;;;10.56;100.00
21100;BME280;10708;50.824;4.408;2023-04-08T09:15:11;101559.72;;;10.67;100.00
21100;BME280;10708;50.824;4.408;2023-04-08T09:20:15;101554.66;;;10.98;100.00
21100;BME280;10708;50.824;4.408;2023-04-08T09:25:27;101553.00;;;11.33;100.00
21100;BME280;10708;50.824;4.408;2023-04-08T09:30:31;101552.38;;;11.59;100.00
21100;BME280;10708;50.824;4.408;2023-04-08T09:35:35;101546.31;;;11.91;100.00
21100;BME280;10708;50.824;4.408;2023-04-08T09:40:38;101553.75;;;12.09;100.00
21100;BME280;10708;50.824;4.408;2023-04-08T09:45:44;101555.66;;;11.68;100.00
21100;BME280;10708;50.824;4.408;2023-04-08T09:50:50;101556.88;;;11.55;100.00
21100;BME280;10708;50.824;4.408;2023-04-08T09:55:55;101556.63;;;11.66;100.00
21100;BME280;10708;50.824;4.408;2023-04-08T10:00:58;101561.53;;;11.81;100.00
21100;BME280;10708;50.824;4.408;2023-04-08T10:06:03;101553.91;;;12.04;100.00
21100;BME280;10708;50.824;4.408;2023-04-08T10:11:08;101554.00;;;12.34;100.00
21100;BME280;10708;50.824;4.408;2023-04-08T10:16:24;101551.47;;;12.60;100.00
21100;BME280;10708;50.824;4.408;2023-04-08T10:21:32;101550.84;;;12.52;100.00
21100;BME280;10708;50.824;4.408;2023-04-08T10:26:37;101546.13;;;12.31;100.00
21100;BME280;10708;50.824;4.408;2023-04-08T10:31:39;101553.66;;;12.46;100.00
21100;BME280;10708;50.824;4.408;2023-04-08T10:36:43;101553.16;;;12.32;100.00
21100;BME280;10708;50.824;4.408;2023-04-08T10:41:46;101545.91;;;12.38;100.00
21100;BME280;10708;50.824;4.408;2023-04-08T10:46:50;101551.59;;;12.25;100.00
21100;BME280;10708;50.824;4.408;2023-04-08T10:51:54;101551.41;;;12.31;100.00
21100;BME280;10708;50.824;4.408;2023-04-08T10:56:56;101549.63;;;11.99;100.00
21100;BME280;10708;50.824;4.408;2023-04-08T11:01:59;101545.75;;;12.13;100.00
21100;BME280;10708;50.824;4.408;2023-04-08T11:07:05;101555.94;;;12.27;100.00
21100;BME280;10708;50.824;4.408;2023-04-08T11:12:09;101556.22;;;12.16;100.00
21100;BME280;10708;50.824;4.408;2023-04-08T11:17:14;101552.00;;;12.09;100.00
21100;BME280;10708;50.824;4.408;2023-04-08T11:22:19;101543.66;;;11.92;100.00
21100;BME280;10708;50.824;4.408;2023-04-08T11:27:22;101541.09;;;11.89;100.00
21100;BME280;10708;50.824;4.408;2023-04-08T11:32:25;101533.22;;;12.20;100.00
21100;BME280;10708;50.824;4.408;2023-04-08T11:37:37;101532.72;;;12.38;100.00
21100;BME280;10708;50.824;4.408;2023-04-08T11:42:40;101535.00;;;12.81;100.00
21100;BME280;10708;50.824;4.408;2023-04-08T11:47:43;101531.59;;;13.07;100.00
21100;BME280;10708;50.824;4.408;2023-04-08T11:52:48;101532.50;;;13.36;100.00
21100;BME280;10708;50.824;4.408;2023-04-08T11:57:51;101534.56;;;13.52;100.00
21100;BME280;10708;50.824;4.408;2023-04-08T12:02:54;101541.09;;;13.68;100.00
21100;BME280;10708;50.824;4.408;2023-04-08T12:08:00;101526.88;;;13.71;100.00
21100;BME280;10708;50.824;4.408;2023-04-08T12:13:03;101535.22;;;13.03;100.00
21100;BME280;10708;50.824;4.408;2023-04-08T12:18:05;101538.69;;;12.76;100.00
21100;BME280;10708;50.824;4.408;2023-04-08T12:23:09;101531.31;;;12.57;100.00
21100;BME280;10708;50.824;4.408;2023-04-08T12:28:11;101533.72;;;12.65;100.00
21100;BME280;10708;50.824;4.408;2023-04-08T12:33:14;101528.81;;;12.82;100.00
21100;BME280;10708;50.824;4.408;2023-04-08T12:38:18;101522.53;;;12.86;100.00
21100;BME280;10708;50.824;4.408;2023-04-08T12:43:21;101527.53;;;13.25;100.00
21100;BME280;10708;50.824;4.408;2023-04-08T12:48:24;101514.50;;;13.47;100.00
21100;BME280;10708;50.824;4.408;2023-04-08T12:53:29;101508.88;;;13.82;100.00
21100;BME280;10708;50.824;4.408;2023-04-08T12:58:31;101503.66;;;14.06;100.00
21100;BME280;10708;50.824;4.408;2023-04-08T13:03:33;101512.66;;;14.25;100.00
21100;BME280;10708;50.824;4.408;2023-04-08T13:08:37;101503.34;;;14.38;100.00
21100;BME280;10708;50.824;4.408;2023-04-08T13:13:39;101499.63;;;14.19;100.00
21100;BME280;10708;50.824;4.408;2023-04-08T13:18:42;101491.50;;;13.74;100.00
21100;BME280;10708;50.824;4.408;2023-04-08T13:23:45;101499.28;;;13.78;100.00
21100;BME280;10708;50.824;4.408;2023-04-08T13:28:48;101495.69;;;13.81;100.00
21100;BME280;10708;50.824;4.408;2023-04-08T13:33:52;101495.06;;;13.97;100.00
21100;BME280;10708;50.824;4.408;2023-04-08T13:38:56;101487.81;;;13.78;100.00
21100;BME280;10708;50.824;4.408;2023-04-08T13:43:58;101495.94;;;13.98;100.00
21100;BME280;10708;50.824;4.408;2023-04-08T13:49:01;101495.94;;;13.73;100.00
21100;BME280;10708;50.824;4.408;2023-04-08T13:54:05;101492.19;;;13.54;100.00
21100;BME280;10708;50.824;4.408;2023-04-08T13:59:07;101489.16;;;13.38;100.00
21100;BME280;10708;50.824;4.408;2023-04-08T14:04:10;101483.84;;;13.66;100.00
21100;BME280;10708;50.824;4.408;2023-04-08T14:09:14;101474.13;;;13.66;100.00
21100;BME280;10708;50.824;4.408;2023-04-08T14:14:16;101472.72;;;14.06;100.00
21100;BME280;10708;50.824;4.408;2023-04-08T14:19:18;101473.84;;;13.99;100.00
21100;BME280;10708;50.824;4.408;2023-04-08T14:24:22;101469.16;;;13.82;100.00
21100;BME280;10708;50.824;4.408;2023-04-08T14:29:24;101461.94;;;13.87;100.00
21100;BME280;10708;50.824;4.408;2023-04-08T14:34:27;101473.25;;;13.91;100.00
21100;BME280;10708;50.824;4.408;2023-04-08T14:39:31;101472.63;;;13.84;100.00
21100;BME280;10708;50.824;4.408;2023-04-08T14:44:34;101456.34;;;13.95;100.00
21100;BME280;10708;50.824;4.408;2023-04-08T14:49:36;101460.84;;;13.93;100.00
21100;BME280;10708;50.824;4.408;2023-04-08T14:54:40;101463.00;;;13.82;100.00
21100;BME280;10708;50.824;4.408;2023-04-08T14:59:45;101468.81;;;13.66;100.00
21100;BME280;10708;50.824;4.408;2023-04-08T15:04:47;101461.75;;;13.67;100.00
21100;BME280;10708;50.824;4.408;2023-04-08T15:09:51;101466.28;;;13.88;100.00
21100;BME280;10708;50.824;4.408;2023-04-08T15:14:54;101458.72;;;14.02;100.00
21100;BME280;10708;50.824;4.408;2023-04-08T15:19:56;101458.41;;;13.87;100.00
21100;BME280;10708;50.824;4.408;2023-04-08T15:25:00;101453.72;;;13.95;100.00
21100;BME280;10708;50.824;4.408;2023-04-08T15:30:06;101461.03;;;13.62;100.00
21100;BME280;10708;50.824;4.408;2023-04-08T15:35:09;101458.06;;;13.71;100.00
21100;BME280;10708;50.824;4.408;2023-04-08T15:40:13;101457.78;;;13.54;100.00
21100;BME280;10708;50.824;4.408;2023-04-08T15:45:16;101462.47;;;13.46;100.00
21100;BME280;10708;50.824;4.408;2023-04-08T15:50:18;101464.22;;;13.47;100.00
21100;BME280;10708;50.824;4.408;2023-04-08T15:55:22;101463.34;;;13.46;100.00
21100;BME280;10708;50.824;4.408;2023-04-08T16:00:24;101458.06;;;13.46;100.00
21100;BME280;10708;50.824;4.408;2023-04-08T16:05:27;101461.28;;;13.54;100.00
21100;BME280;10708;50.824;4.408;2023-04-08T16:10:32;101448.88;;;13.56;100.00
21100;BME280;10708;50.824;4.408;2023-04-08T16:15:34;101455.97;;;13.56;100.00
21100;BME280;10708;50.824;4.408;2023-04-08T16:20:37;101462.91;;;13.58;100.00
21100;BME280;10708;50.824;4.408;2023-04-08T16:25:40;101452.28;;;13.60;100.00
21100;BME280;10708;50.824;4.408;2023-04-08T16:30:43;101455.97;;;13.56;100.00
21100;BME280;10708;50.824;4.408;2023-04-08T16:35:47;101450.97;;;13.47;100.00
21100;BME280;10708;50.824;4.408;2023-04-08T16:40:51;101452.94;;;13.40;100.00
21100;BME280;10708;50.824;4.408;2023-04-08T16:45:54;101452.38;;;13.30;100.00
21100;BME280;10708;50.824;4.408;2023-04-08T16:50:57;101449.84;;;13.27;100.00
21100;BME280;10708;50.824;4.408;2023-04-08T16:56:01;101457.19;;;13.18;100.00
21100;BME280;10708;50.824;4.408;2023-04-08T17:01:05;101464.47;;;13.10;100.00
21100;BME280;10708;50.824;4.408;2023-04-08T17:06:09;101452.44;;;13.01;100.00
21100;BME280;10708;50.824;4.408;2023-04-08T17:11:13;101451.31;;;13.08;100.00
21100;BME280;10708;50.824;4.408;2023-04-08T17:16:16;101448.91;;;13.28;100.00
21100;BME280;10708;50.824;4.408;2023-04-08T17:21:19;101456.88;;;13.55;100.00
21100;BME280;10708;50.824;4.408;2023-04-08T17:26:23;101454.00;;;13.61;100.00
21100;BME280;10708;50.824;4.408;2023-04-08T17:31:26;101455.63;;;13.65;100.00
21100;BME280;10708;50.824;4.408;2023-04-08T17:36:29;101459.28;;;13.61;100.00
21100;BME280;10708;50.824;4.408;2023-04-08T17:41:33;101464.94;;;13.50;100.00
21100;BME280;10708;50.824;4.408;2023-04-08T17:46:36;101459.88;;;13.44;100.00
21100;BME280;10708;50.824;4.408;2023-04-08T17:51:38;101465.13;;;13.46;100.00
21100;BME280;10708;50.824;4.408;2023-04-08T17:56:42;101464.41;;;13.41;100.00
21100;BME280;10708;50.824;4.408;2023-04-08T18:01:45;101468.00;;;13.38;100.00
21100;BME280;10708;50.824;4.408;2023-04-08T18:06:47;101467.56;;;13.25;100.00
21100;BME280;10708;50.824;4.408;2023-04-08T18:11:51;101472.16;;;13.19;100.00
21100;BME280;10708;50.824;4.408;2023-04-08T18:16:53;101472.63;;;13.04;100.00
21100;BME280;10708;50.824;4.408;2023-04-08T18:21:57;101474.78;;;12.91;100.00
21100;BME280;10708;50.824;4.408;2023-04-08T18:27:00;101469.06;;;12.77;100.00
21100;BME280;10708;50.824;4.408;2023-04-08T18:32:03;101475.91;;;12.54;100.00
21100;BME280;10708;50.824;4.408;2023-04-08T18:37:06;101485.28;;;12.35;100.00
21100;BME280;10708;50.824;4.408;2023-04-08T18:42:09;101495.41;;;12.18;100.00
21100;BME280;10708;50.824;4.408;2023-04-08T18:47:12;101495.03;;;12.01;100.00
21100;BME280;10708;50.824;4.408;2023-04-08T18:52:14;101491.00;;;11.88;100.00
21100;BME280;10708;50.824;4.408;2023-04-08T18:57:18;101502.59;;;11.80;100.00
21100;BME280;10708;50.824;4.408;2023-04-08T19:02:21;101503.69;;;11.72;100.00
21100;BME280;10708;50.824;4.408;2023-04-08T19:07:24;101501.28;;;11.63;100.00
21100;BME280;10708;50.824;4.408;2023-04-08T19:12:28;101488.97;;;11.62;100.00
21100;BME280;10708;50.824;4.408;2023-04-08T19:17:31;101495.16;;;11.61;100.00
21100;BME280;10708;50.824;4.408;2023-04-08T19:22:33;101497.94;;;11.56;100.00
21100;BME280;10708;50.824;4.408;2023-04-08T19:27:37;101503.44;;;11.47;100.00
21100;BME280;10708;50.824;4.408;2023-04-08T19:32:39;101501.09;;;11.35;100.00
21100;BME280;10708;50.824;4.408;2023-04-08T19:37:42;101508.47;;;11.19;100.00
21100;BME280;10708;50.824;4.408;2023-04-08T19:42:46;101514.97;;;11.06;100.00
21100;BME280;10708;50.824;4.408;2023-04-08T19:47:48;101521.31;;;10.97;100.00
21100;BME280;10708;50.824;4.408;2023-04-08T19:52:51;101521.44;;;10.90;100.00
21100;BME280;10708;50.824;4.408;2023-04-08T19:57:54;101521.66;;;10.81;100.00
21100;BME280;10708;50.824;4.408;2023-04-08T20:02:57;101523.53;;;10.76;100.00
21100;BME280;10708;50.824;4.408;2023-04-08T20:07:59;101523.72;;;10.68;100.00
21100;BME280;10708;50.824;4.408;2023-04-08T20:13:03;101528.19;;;10.63;100.00
21100;BME280;10708;50.824;4.408;2023-04-08T20:18:06;101525.75;;;10.54;100.00
21100;BME280;10708;50.824;4.408;2023-04-08T20:23:08;101531.97;;;10.48;100.00
21100;BME280;10708;50.824;4.408;2023-04-08T20:28:12;101535.66;;;10.41;100.00
21100;BME280;10708;50.824;4.408;2023-04-08T20:33:14;101539.28;;;10.35;100.00
21100;BME280;10708;50.824;4.408;2023-04-08T20:38:16;101536.75;;;10.29;100.00
21100;BME280;10708;50.824;4.408;2023-04-08T20:43:20;101536.00;;;10.23;100.00
21100;BME280;10708;50.824;4.408;2023-04-08T20:48:23;101532.69;;;10.10;100.00
21100;BME280;10708;50.824;4.408;2023-04-08T20:53:25;101538.19;;;9.98;100.00
21100;BME280;10708;50.824;4.408;2023-04-08T20:58:29;101537.53;;;9.87;100.00
21100;BME280;10708;50.824;4.408;2023-04-08T21:03:32;101535.97;;;9.74;100.00
21100;BME280;10708;50.824;4.408;2023-04-08T21:08:34;101533.56;;;9.61;100.00
21100;BME280;10708;50.824;4.408;2023-04-08T21:13:38;101531.06;;;9.52;100.00
21100;BME280;10708;50.824;4.408;2023-04-08T21:18:41;101535.59;;;9.43;100.00
21100;BME280;10708;50.824;4.408;2023-04-08T21:23:43;101534.88;;;9.33;100.00
21100;BME280;10708;50.824;4.408;2023-04-08T21:28:47;101522.78;;;9.23;100.00
21100;BME280;10708;50.824;4.408;2023-04-08T21:33:49;101522.06;;;9.12;100.00
21100;BME280;10708;50.824;4.408;2023-04-08T21:38:52;101526.56;;;9.04;100.00
21100;BME280;10708;50.824;4.408;2023-04-08T21:43:55;101528.41;;;8.97;100.00
21100;BME280;10708;50.824;4.408;2023-04-08T21:48:58;101534.63;;;8.90;100.00
21100;BME280;10708;50.824;4.408;2023-04-08T21:54:00;101538.22;;;8.83;100.00
21100;BME280;10708;50.824;4.408;2023-04-08T21:59:04;101535.69;;;8.77;100.00
21100;BME280;10708;50.824;4.408;2023-04-08T22:04:06;101535.75;;;8.72;100.00
21100;BME280;10708;50.824;4.408;2023-04-08T22:09:09;101525.34;;;8.65;100.00
21100;BME280;10708;50.824;4.408;2023-04-08T22:14:12;101536.78;;;8.59;100.00
21100;BME280;10708;50.824;4.408;2023-04-08T22:19:15;101533.31;;;8.56;100.00
21100;BME280;10708;50.824;4.408;2023-04-08T22:24:17;101532.47;;;8.54;100.00
21100;BME280;10708;50.824;4.408;2023-04-08T22:29:21;101529.94;;;8.47;100.00
21100;BME280;10708;50.824;4.408;2023-04-08T22:34:23;101526.50;;;8.39;100.00
21100;BME280;10708;50.824;4.408;2023-04-08T22:39:26;101529.22;;;8.33;100.00
21100;BME280;10708;50.824;4.408;2023-04-08T22:44:30;101533.56;;;8.30;100.00
21100;BME280;10708;50.824;4.408;2023-04-08T22:49:32;101537.09;;;8.32;100.00
21100;BME280;10708;50.824;4.408;2023-04-08T22:54:34;101538.84;;;8.33;100.00
21100;BME280;10708;50.824;4.408;2023-04-08T22:59:38;101532.75;;;8.26;100.00
21100;BME280;10708;50.824;4.408;2023-04-08T23:04:40;101530.16;;;8.23;100.00
21100;BME280;10708;50.824;4.408;2023-04-08T23:09:43;101525.88;;;8.16;100.00
21100;BME280;10708;50.824;4.408;2023-04-08T23:14:47;101526.78;;;8.10;100.00
21100;BME280;10708;50.824;4.408;2023-04-08T23:19:49;101532.09;;;8.06;100.00
21100;BME280;10708;50.824;4.408;2023-04-08T23:24:52;101518.19;;;7.98;100.00
21100;BME280;10708;50.824;4.408;2023-04-08T23:29:55;101520.00;;;7.91;100.00
21100;BME280;10708;50.824;4.408;2023-04-08T23:34:58;101516.56;;;7.86;100.00
21100;BME280;10708;50.824;4.408;2023-04-08T23:40:00;101514.84;;;7.81;100.00
21100;BME280;10708;50.824;4.408;2023-04-08T23:45:05;101522.78;;;7.76;100.00
21100;BME280;10708;50.824;4.408;2023-04-08T23:50:08;101517.53;;;7.73;100.00
21100;BME280;10708;50.824;4.408;2023-04-08T23:55:10;101520.25;;;7.65;100.00
